| time (UTC) | temp C | wind direction | speed KPH | gust KPH | rain 1hr cm | rain 24hr cm | rain mn cm | humidity % | barometer mb |
| 20260510054848 | 9 | 194 | 0.0 | 0.0 | 0.00 | 0.00 | 0.00 | 79 | 1011.5 |
| 20260510054344 | 9 | 194 | 0.0 | 0.0 | 0.00 | 0.00 | 0.00 | 78 | 1011.5 |
| 20260510053839 | 10 | 194 | 0.0 | 0.0 | 0.00 | 0.00 | 0.00 | 75 | 1011.7 |
| 20260510053334 | 10 | 195 | 0.0 | 0.0 | 0.00 | 0.00 | 0.00 | 74 | 1011.9 |
| 20260510052831 | 10 | 195 | 0.0 | 0.0 | 0.00 | 0.00 | 0.00 | 74 | 1011.8 |
| 20260510052327 | 10 | 195 | 0.0 | 0.0 | 0.00 | 0.00 | 0.00 | 72 | 1011.8 |
| 20260510051824 | 11 | 195 | 0.0 | 0.0 | 0.00 | 0.00 | 0.00 | 71 | 1012.0 |
| 20260510051320 | 11 | 195 | 0.0 | 1.6 | 0.00 | 0.00 | 0.00 | 71 | 1011.8 |
| 20260510050818 | 11 | 194 | 0.0 | 0.0 | 0.00 | 0.00 | 0.00 | 70 | 1012.0 |
| 20260510050314 | 11 | 194 | 0.0 | 0.0 | 0.00 | 0.00 | 0.00 | 70 | 1011.9 |
| 20260510045811 | 11 | 194 | 0.0 | 0.0 | 0.00 | 0.00 | 0.00 | 70 | 1012.0 |
| 20260510045308 | 11 | 194 | 0.0 | 0.0 | 0.00 | 0.00 | 0.00 | 69 | 1012.1 |
| 20260510044805 | 11 | 194 | 0.0 | 0.0 | 0.00 | 0.00 | 0.00 | 68 | 1012.0 |
| 20260510044302 | 12 | 194 | 0.0 | 0.0 | 0.00 | 0.00 | 0.00 | 67 | 1012.4 |
| 20260510043758 | 12 | 195 | 0.0 | 0.0 | 0.00 | 0.00 | 0.00 | 67 | 1012.1 |
| 20260510043254 | 12 | 195 | 0.0 | 0.0 | 0.00 | 0.00 | 0.00 | 67 | 1012.3 |
| 20260510042752 | 12 | 195 | 0.0 | 0.0 | 0.00 | 0.00 | 0.00 | 66 | 1012.3 |
| 20260510042247 | 12 | 195 | 0.0 | 0.0 | 0.00 | 0.00 | 0.00 | 65 | 1012.1 |
| 20260510041745 | 12 | 195 | 0.0 | 1.6 | 0.00 | 0.00 | 0.00 | 64 | 1012.2 |
| 20260510041242 | 13 | 196 | 0.0 | 0.0 | 0.00 | 0.00 | 0.00 | 62 | 1012.0 |
| 20260510040739 | 13 | 196 | 1.6 | 3.2 | 0.00 | 0.00 | 0.00 | 62 | 1011.9 |
| 20260510040236 | 13 | 196 | 0.0 | 0.0 | 0.00 | 0.00 | 0.00 | 61 | 1012.3 |
| 20260510035730 | 13 | 197 | 1.6 | 3.2 | 0.00 | 0.00 | 0.00 | 60 | 1011.9 |
| 20260510035227 | 13 | 196 | 1.6 | 3.2 | 0.00 | 0.00 | 0.00 | 59 | 1012.0 |
| 20260510034722 | 13 | 196 | 3.2 | 3.2 | 0.00 | 0.00 | 0.00 | 58 | 1012.2 |
| 20260510034221 | 14 | 196 | 3.2 | 3.2 | 0.00 | 0.00 | 0.00 | 58 | 1012.1 |
| 20260510033716 | 13 | 195 | 1.6 | 3.2 | 0.00 | 0.00 | 0.00 | 59 | 1012.4 |
| 20260510033215 | 14 | 194 | 3.2 | 3.2 | 0.00 | 0.00 | 0.00 | 58 | 1012.1 |
| 20260510032710 | 15 | 197 | 1.6 | 1.6 | 0.00 | 0.00 | 0.00 | 55 | 1011.9 |
| 20260510032207 | 15 | 200 | 3.2 | 3.2 | 0.00 | 0.00 | 0.00 | 55 | 1011.9 |
| 20260510031701 | 15 | 198 | 1.6 | 1.6 | 0.00 | 0.00 | 0.00 | 56 | 1011.9 |
| 20260510031159 | 15 | 200 | 0.0 | 1.6 | 0.00 | 0.00 | 0.00 | 55 | 1011.9 |
| 20260510030658 | 14 | 218 | 4.8 | 4.8 | 0.00 | 0.00 | 0.00 | 56 | 1011.9 |
| 20260510030156 | 14 | 199 | 1.6 | 1.6 | 0.00 | 0.00 | 0.00 | 56 | 1011.9 |
| 20260510025653 | 14 | 198 | 0.0 | 1.6 | 0.00 | 0.00 | 0.00 | 57 | 1011.9 |
| 20260510025150 | 14 | 207 | 4.8 | 4.8 | 0.00 | 0.00 | 0.00 | 57 | 1011.7 |
| 20260510024647 | 13 | 220 | 4.8 | 4.8 | 0.00 | 0.00 | 0.00 | 59 | 1011.6 |
| 20260510024143 | 14 | 188 | 3.2 | 3.2 | 0.00 | 0.00 | 0.00 | 59 | 1011.5 |
| 20260510023639 | 14 | 163 | 0.0 | 0.0 | 0.00 | 0.00 | 0.00 | 57 | 1011.4 |
| 20260510023137 | 14 | 163 | 0.0 | 0.0 | 0.00 | 0.00 | 0.00 | 60 | 1011.3 |
| 20260510022637 | 15 | 163 | 0.0 | 0.0 | 0.00 | 0.00 | 0.00 | 59 | 1011.3 |
| 20260510022132 | 15 | 162 | 0.0 | 0.0 | 0.00 | 0.00 | 0.00 | 57 | 1011.1 |
| 20260510021627 | 15 | 187 | 0.0 | 0.0 | 0.00 | 0.00 | 0.00 | 55 | 1011.4 |
| 20260510021125 | 15 | 192 | 0.0 | 0.0 | 0.00 | 0.00 | 0.00 | 53 | 1011.3 |
| 20260510020619 | 15 | 194 | 0.0 | 0.0 | 0.00 | 0.00 | 0.00 | 53 | 1011.2 |
| 20260510020115 | 15 | 195 | 1.6 | 1.6 | 0.00 | 0.00 | 0.00 | 56 | 1010.6 |
| 20260510015611 | 14 | 192 | 1.6 | 1.6 | 0.00 | 0.00 | 0.00 | 60 | 1010.7 |
| 20260510015108 | 15 | 195 | 1.6 | 1.6 | 0.00 | 0.00 | 0.00 | 60 | 1010.7 |
| 20260510014604 | 14 | 207 | 1.6 | 3.2 | 0.00 | 0.00 | 0.00 | 62 | 1010.6 |
| 20260510014102 | 15 | 204 | 1.6 | 1.6 | 0.00 | 0.00 | 0.00 | 66 | 1010.6 |
| 20260510013602 | 15 | 200 | 1.6 | 3.2 | 0.00 | 0.00 | 0.00 | 63 | 1010.4 |
| 20260510013058 | 16 | 197 | 0.0 | 0.0 | 0.00 | 0.00 | 0.00 | 63 | 1010.4 |
| 20260510012557 | 16 | 200 | 0.0 | 0.0 | 0.00 | 0.00 | 0.00 | 60 | 1010.3 |
| 20260510012054 | 16 | 202 | 1.6 | 1.6 | 0.00 | 0.00 | 0.00 | 61 | 1010.2 |
| 20260510011553 | 16 | 202 | 3.2 | 3.2 | 0.00 | 0.00 | 0.00 | 62 | 1010.1 |
| 20260510011049 | 16 | 216 | 3.2 | 4.8 | 0.00 | 0.00 | 0.00 | 63 | 1010.1 |
| 20260510010546 | 17 | 212 | 3.2 | 3.2 | 0.00 | 0.00 | 0.00 | 63 | 1010.0 |
| 20260510010043 | 16 | 206 | 3.2 | 3.2 | 0.00 | 0.00 | 0.00 | 62 | 1009.8 |
| 20260510005539 | 17 | 206 | 1.6 | 1.6 | 0.00 | 0.00 | 0.00 | 62 | 1009.9 |
| 20260510005037 | 17 | 206 | 1.6 | 1.6 | 0.00 | 0.00 | 0.00 | 59 | 1009.8 |
| 20260510004534 | 17 | 206 | 1.6 | 1.6 | 0.00 | 0.00 | 0.00 | 59 | 1009.6 |
| 20260510004032 | 18 | 206 | 1.6 | 1.6 | 0.00 | 0.00 | 0.00 | 59 | 1009.7 |
| 20260510003528 | 18 | 206 | 1.6 | 3.2 | 0.00 | 0.00 | 0.00 | 58 | 1009.5 |
| 20260510003024 | 18 | 205 | 1.6 | 1.6 | 0.00 | 0.00 | 0.00 | 57 | 1009.4 |
| 20260510002519 | 18 | 203 | 1.6 | 1.6 | 0.00 | 0.00 | 0.00 | 57 | 1009.3 |
| 20260510002017 | 18 | 207 | 3.2 | 4.8 | 0.00 | 0.00 | 0.00 | 56 | 1009.4 |
| 20260510001514 | 19 | 211 | 6.4 | 6.4 | 0.00 | 0.00 | 0.00 | 55 | 1009.1 |
| 20260510001012 | 19 | 205 | 6.4 | 6.4 | 0.00 | 0.00 | 0.00 | 54 | 1009.1 |
| 20260510000512 | 19 | 203 | 4.8 | 4.8 | 0.00 | 0.00 | 0.00 | 54 | 1009.0 |
| 20260510000010 | 19 | 200 | 6.4 | 9.7 | 0.00 | 0.00 | 0.00 | 54 | 1008.9 |
| 20260509235506 | 20 | 197 | 6.4 | 6.4 | 0.00 | 0.00 | 0.00 | 53 | 1008.7 |
| 20260509235002 | 20 | 186 | 6.4 | 6.4 | 0.00 | 0.00 | 0.00 | 52 | 1008.9 |
| 20260509234459 | 20 | 206 | 6.4 | 6.4 | 0.00 | 0.00 | 0.00 | 52 | 1008.8 |
| 20260509233957 | 20 | 208 | 6.4 | 6.4 | 0.00 | 0.00 | 0.00 | 51 | 1008.8 |
| 20260509233454 | 20 | 198 | 8.0 | 9.7 | 0.00 | 0.00 | 0.00 | 50 | 1008.8 |
| 20260509232950 | 20 | 207 | 9.7 | 11.3 | 0.00 | 0.00 | 0.00 | 50 | 1008.7 |
| 20260509232448 | 20 | 196 | 6.4 | 6.4 | 0.00 | 0.00 | 0.00 | 51 | 1009.0 |
| 20260509231944 | 20 | 197 | 8.0 | 9.7 | 0.00 | 0.00 | 0.00 | 51 | 1008.8 |
| 20260509231440 | 20 | 204 | 9.7 | 11.3 | 0.00 | 0.00 | 0.00 | 50 | 1008.8 |
| 20260509230939 | 20 | 196 | 9.7 | 12.9 | 0.00 | 0.00 | 0.00 | 51 | 1008.8 |
| 20260509230435 | 21 | 212 | 9.7 | 12.9 | 0.00 | 0.00 | 0.00 | 49 | 1008.6 |
| 20260509225931 | 21 | 168 | 12.9 | 14.5 | 0.00 | 0.00 | 0.00 | 50 | 1008.6 |
| 20260509225428 | 21 | 194 | 9.7 | 11.3 | 0.00 | 0.00 | 0.00 | 50 | 1008.6 |
| 20260509224924 | 21 | 207 | 9.7 | 12.9 | 0.00 | 0.00 | 0.00 | 48 | 1008.7 |
| 20260509224419 | 21 | 203 | 17.7 | 17.7 | 0.00 | 0.00 | 0.00 | 47 | 1008.6 |
| 20260509223917 | 21 | 177 | 16.1 | 20.9 | 0.00 | 0.00 | 0.00 | 48 | 1008.4 |
| 20260509223414 | 21 | 176 | 11.3 | 12.9 | 0.00 | 0.00 | 0.00 | 48 | 1008.7 |
| 20260509222911 | 21 | 197 | 14.5 | 16.1 | 0.00 | 0.00 | 0.00 | 48 | 1008.6 |
| 20260509222406 | 21 | 194 | 14.5 | 16.1 | 0.00 | 0.00 | 0.00 | 48 | 1008.8 |
| 20260509221901 | 21 | 201 | 12.9 | 14.5 | 0.00 | 0.00 | 0.00 | 48 | 1008.6 |
| 20260509221359 | 21 | 191 | 8.0 | 9.7 | 0.00 | 0.00 | 0.00 | 48 | 1008.8 |
| 20260509220855 | 21 | 213 | 12.9 | 14.5 | 0.00 | 0.00 | 0.00 | 47 | 1008.6 |
| 20260509220350 | 21 | 167 | 14.5 | 17.7 | 0.00 | 0.00 | 0.00 | 47 | 1008.7 |
| 20260509215846 | 21 | 197 | 11.3 | 16.1 | 0.00 | 0.00 | 0.00 | 47 | 1008.6 |
| 20260509215343 | 21 | 219 | 16.1 | 16.1 | 0.00 | 0.00 | 0.00 | 46 | 1008.6 |
| 20260509214840 | 21 | 196 | 8.0 | 11.3 | 0.00 | 0.00 | 0.00 | 49 | 1008.5 |
| 20260509214337 | 21 | 207 | 19.3 | 24.1 | 0.00 | 0.00 | 0.00 | 46 | 1008.5 |
| 20260509213834 | 21 | 191 | 12.9 | 16.1 | 0.00 | 0.00 | 0.00 | 45 | 1008.6 |
| 20260509213329 | 21 | 180 | 9.7 | 11.3 | 0.00 | 0.00 | 0.00 | 47 | 1008.4 |
| 20260509212827 | 21 | 221 | 11.3 | 12.9 | 0.00 | 0.00 | 0.00 | 48 | 1008.5 |
| 20260509212325 | 21 | 212 | 16.1 | 17.7 | 0.00 | 0.00 | 0.00 | 47 | 1008.5 |
| 20260509211821 | 21 | 197 | 11.3 | 12.9 | 0.00 | 0.00 | 0.00 | 47 | 1008.5 |
| 20260509211317 | 21 | 186 | 14.5 | 16.1 | 0.00 | 0.00 | 0.00 | 47 | 1008.5 |
| 20260509210814 | 21 | 210 | 14.5 | 17.7 | 0.00 | 0.00 | 0.00 | 46 | 1008.3 |
| 20260509210311 | 21 | 212 | 16.1 | 17.7 | 0.00 | 0.00 | 0.00 | 45 | 1008.4 |
| 20260509205810 | 21 | 200 | 16.1 | 17.7 | 0.00 | 0.00 | 0.00 | 47 | 1008.4 |
| 20260509205307 | 21 | 180 | 17.7 | 20.9 | 0.00 | 0.00 | 0.00 | 46 | 1008.6 |
| 20260509204801 | 21 | 192 | 11.3 | 12.9 | 0.00 | 0.00 | 0.00 | 45 | 1008.2 |
| 20260509204258 | 21 | 182 | 16.1 | 17.7 | 0.00 | 0.00 | 0.00 | 46 | 1008.4 |
| 20260509203754 | 21 | 189 | 8.0 | 9.7 | 0.00 | 0.00 | 0.00 | 48 | 1008.2 |
| 20260509203252 | 21 | 201 | 9.7 | 11.3 | 0.00 | 0.00 | 0.00 | 45 | 1008.2 |
| 20260509202748 | 22 | 219 | 20.9 | 24.1 | 0.00 | 0.00 | 0.00 | 44 | 1008.2 |
| 20260509202244 | 22 | 190 | 6.4 | 6.4 | 0.00 | 0.00 | 0.00 | 46 | 1008.0 |
| 20260509201744 | 22 | 197 | 11.3 | 14.5 | 0.00 | 0.00 | 0.00 | 44 | 1008.2 |
| 20260509201241 | 21 | 206 | 6.4 | 9.7 | 0.00 | 0.00 | 0.00 | 46 | 1008.0 |
| 20260509200738 | 21 | 248 | 11.3 | 12.9 | 0.00 | 0.00 | 0.00 | 42 | 1008.2 |
| 20260509200238 | 22 | 189 | 14.5 | 17.7 | 0.00 | 0.00 | 0.00 | 46 | 1008.2 |
| 20260509195734 | 23 | 205 | 11.3 | 14.5 | 0.00 | 0.00 | 0.00 | 44 | 1008.0 |
| 20260509195229 | 23 | 196 | 11.3 | 14.5 | 0.00 | 0.00 | 0.00 | 46 | 1008.2 |
| 20260509194724 | 22 | 158 | 12.9 | 12.9 | 0.00 | 0.00 | 0.00 | 47 | 1008.2 |
| 20260509194221 | 22 | 195 | 12.9 | 16.1 | 0.00 | 0.00 | 0.00 | 45 | 1008.2 |
| 20260509193718 | 22 | 171 | 14.5 | 20.9 | 0.00 | 0.00 | 0.00 | 46 | 1008.3 |
| 20260509193217 | 22 | 183 | 9.7 | 12.9 | 0.00 | 0.00 | 0.00 | 46 | 1008.4 |
| 20260509192714 | 21 | 210 | 11.3 | 14.5 | 0.00 | 0.00 | 0.00 | 49 | 1008.5 |
| 20260509192209 | 21 | 177 | 14.5 | 14.5 | 0.00 | 0.00 | 0.00 | 46 | 1008.6 |
| 20260509191705 | 21 | 199 | 16.1 | 17.7 | 0.00 | 0.00 | 0.00 | 48 | 1008.7 |
| 20260509191201 | 21 | 198 | 9.7 | 16.1 | 0.00 | 0.00 | 0.00 | 49 | 1008.8 |
| 20260509190657 | 21 | 214 | 14.5 | 16.1 | 0.00 | 0.00 | 0.00 | 46 | 1008.9 |
| 20260509190155 | 21 | 189 | 14.5 | 16.1 | 0.00 | 0.00 | 0.00 | 48 | 1008.9 |
| 20260509185652 | 21 | 217 | 4.8 | 4.8 | 0.00 | 0.00 | 0.00 | 47 | 1008.8 |
| 20260509185148 | 21 | 222 | 12.9 | 14.5 | 0.00 | 0.00 | 0.00 | 45 | 1008.9 |
| 20260509184646 | 21 | 179 | 14.5 | 16.1 | 0.00 | 0.00 | 0.00 | 46 | 1008.8 |
| 20260509184142 | 20 | 200 | 12.9 | 14.5 | 0.00 | 0.00 | 0.00 | 46 | 1008.8 |
| 20260509183639 | 20 | 177 | 9.7 | 11.3 | 0.00 | 0.00 | 0.00 | 47 | 1009.1 |
| 20260509183134 | 21 | 209 | 9.7 | 12.9 | 0.00 | 0.00 | 0.00 | 47 | 1009.0 |
| 20260509182630 | 21 | 205 | 11.3 | 12.9 | 0.00 | 0.00 | 0.00 | 48 | 1008.9 |
| 20260509182127 | 21 | 209 | 9.7 | 11.3 | 0.00 | 0.00 | 0.00 | 44 | 1009.0 |
| 20260509181625 | 22 | 163 | 12.9 | 16.1 | 0.00 | 0.00 | 0.00 | 47 | 1008.8 |
| 20260509181123 | 22 | 236 | 9.7 | 14.5 | 0.00 | 0.00 | 0.00 | 47 | 1009.2 |
| 20260509180619 | 21 | 205 | 12.9 | 16.1 | 0.00 | 0.00 | 0.00 | 47 | 1009.2 |
| 20260509180116 | 21 | 159 | 16.1 | 20.9 | 0.00 | 0.00 | 0.00 | 47 | 1009.2 |
| 20260509175611 | 20 | 215 | 6.4 | 6.4 | 0.00 | 0.00 | 0.00 | 52 | 1009.6 |
| 20260509175109 | 20 | 218 | 6.4 | 6.4 | 0.00 | 0.00 | 0.00 | 54 | 1009.5 |
| 20260509174605 | 20 | 183 | 8.0 | 9.7 | 0.00 | 0.00 | 0.00 | 51 | 1009.8 |
| 20260509174100 | 20 | 180 | 6.4 | 6.4 | 0.00 | 0.00 | 0.00 | 50 | 1009.6 |
| 20260509173555 | 20 | 241 | 8.0 | 9.7 | 0.00 | 0.00 | 0.00 | 47 | 1009.7 |
| 20260509173051 | 20 | 184 | 11.3 | 14.5 | 0.00 | 0.00 | 0.00 | 51 | 1009.7 |
| 20260509172549 | 21 | 196 | 16.1 | 17.7 | 0.00 | 0.00 | 0.00 | 50 | 1009.8 |
| 20260509172044 | 21 | 162 | 14.5 | 16.1 | 0.00 | 0.00 | 0.00 | 50 | 1009.9 |
| 20260509171540 | 21 | 175 | 16.1 | 17.7 | 0.00 | 0.00 | 0.00 | 49 | 1009.9 |
| 20260509171037 | 21 | 226 | 12.9 | 16.1 | 0.00 | 0.00 | 0.00 | 49 | 1010.1 |
| 20260509170533 | 20 | 190 | 8.0 | 9.7 | 0.00 | 0.00 | 0.00 | 50 | 1010.2 |
| 20260509170029 | 20 | 208 | 6.4 | 6.4 | 0.00 | 0.00 | 0.00 | 51 | 1010.2 |
| 20260509165527 | 20 | 166 | 6.4 | 6.4 | 0.00 | 0.00 | 0.00 | 53 | 1010.1 |
| 20260509165023 | 20 | 163 | 8.0 | 12.9 | 0.00 | 0.00 | 0.00 | 54 | 1010.0 |
| 20260509164520 | 19 | 194 | 9.7 | 12.9 | 0.00 | 0.00 | 0.00 | 52 | 1010.2 |
| 20260509164016 | 19 | 190 | 9.7 | 12.9 | 0.00 | 0.00 | 0.00 | 51 | 1010.1 |
| 20260509163514 | 19 | 187 | 12.9 | 14.5 | 0.00 | 0.00 | 0.00 | 52 | 1010.1 |
| 20260509163014 | 20 | 184 | 14.5 | 16.1 | 0.00 | 0.00 | 0.00 | 51 | 1010.2 |
| 20260509162512 | 20 | 200 | 14.5 | 17.7 | 0.00 | 0.00 | 0.00 | 52 | 1010.1 |
| 20260509162008 | 20 | 215 | 17.7 | 20.9 | 0.00 | 0.00 | 0.00 | 50 | 1010.0 |
| 20260509161504 | 20 | 192 | 12.9 | 16.1 | 0.00 | 0.00 | 0.00 | 51 | 1010.1 |
| 20260509160959 | 20 | 205 | 12.9 | 16.1 | 0.00 | 0.00 | 0.00 | 51 | 1010.0 |
| 20260509160455 | 20 | 212 | 11.3 | 14.5 | 0.00 | 0.00 | 0.00 | 50 | 1009.9 |
| 20260509155956 | 20 | 229 | 14.5 | 17.7 | 0.00 | 0.00 | 0.00 | 51 | 1010.1 |
| 20260509155452 | 20 | 211 | 12.9 | 14.5 | 0.00 | 0.00 | 0.00 | 48 | 1010.1 |
| 20260509154949 | 20 | 219 | 12.9 | 16.1 | 0.00 | 0.00 | 0.00 | 50 | 1010.1 |
| 20260509154445 | 20 | 174 | 14.5 | 16.1 | 0.00 | 0.00 | 0.00 | 52 | 1010.2 |
| 20260509153943 | 19 | 188 | 12.9 | 14.5 | 0.00 | 0.00 | 0.00 | 54 | 1010.0 |
| 20260509153439 | 19 | 198 | 14.5 | 16.1 | 0.00 | 0.00 | 0.00 | 51 | 1010.2 |
| 20260509152936 | 19 | 202 | 8.0 | 9.7 | 0.00 | 0.00 | 0.00 | 54 | 1010.2 |
| 20260509152432 | 19 | 204 | 9.7 | 12.9 | 0.00 | 0.00 | 0.00 | 53 | 1010.2 |
| 20260509151929 | 19 | 207 | 14.5 | 17.7 | 0.00 | 0.00 | 0.00 | 54 | 1010.1 |
| 20260509151425 | 20 | 194 | 17.7 | 22.5 | 0.00 | 0.00 | 0.00 | 50 | 1010.2 |
| 20260509150924 | 20 | 206 | 11.3 | 14.5 | 0.00 | 0.00 | 0.00 | 53 | 1010.6 |
| 20260509150421 | 18 | 240 | 12.9 | 14.5 | 0.00 | 0.00 | 0.00 | 53 | 1010.2 |
| 20260509145919 | 18 | 211 | 9.7 | 12.9 | 0.00 | 0.00 | 0.00 | 56 | 1010.4 |
| 20260509145419 | 17 | 180 | 6.4 | 6.4 | 0.00 | 0.00 | 0.00 | 60 | 1010.2 |
| 20260509144915 | 17 | 192 | 9.7 | 11.3 | 0.00 | 0.00 | 0.00 | 56 | 1010.4 |
| 20260509144412 | 17 | 180 | 12.9 | 14.5 | 0.00 | 0.00 | 0.00 | 56 | 1010.3 |
| 20260509143909 | 18 | 210 | 8.0 | 9.7 | 0.00 | 0.00 | 0.00 | 55 | 1010.3 |
| 20260509143406 | 18 | 190 | 9.7 | 12.9 | 0.00 | 0.00 | 0.00 | 55 | 1010.3 |
| 20260509142902 | 18 | 200 | 6.4 | 11.3 | 0.00 | 0.00 | 0.00 | 57 | 1010.3 |
| 20260509142359 | 18 | 204 | 3.2 | 3.2 | 0.00 | 0.00 | 0.00 | 53 | 1010.1 |
| 20260509141854 | 17 | 210 | 8.0 | 12.9 | 0.00 | 0.00 | 0.00 | 63 | 1010.0 |
| 20260509141352 | 17 | 170 | 11.3 | 12.9 | 0.00 | 0.00 | 0.00 | 57 | 1010.2 |
| 20260509140848 | 17 | 172 | 8.0 | 12.9 | 0.00 | 0.00 | 0.00 | 59 | 1010.4 |
| 20260509140345 | 17 | 166 | 9.7 | 11.3 | 0.00 | 0.00 | 0.00 | 59 | 1010.6 |
| 20260509135843 | 16 | 165 | 9.7 | 14.5 | 0.00 | 0.00 | 0.00 | 61 | 1010.7 |
| 20260509135340 | 16 | 191 | 1.6 | 3.2 | 0.00 | 0.00 | 0.00 | 61 | 1010.7 |
| 20260509134838 | 16 | 218 | 8.0 | 9.7 | 0.00 | 0.00 | 0.00 | 61 | 1010.9 |
| 20260509134335 | 16 | 210 | 8.0 | 11.3 | 0.00 | 0.00 | 0.00 | 62 | 1011.0 |
| 20260509133831 | 16 | 192 | 4.8 | 4.8 | 0.00 | 0.00 | 0.00 | 63 | 1011.1 |
| 20260509133328 | 15 | 215 | 9.7 | 11.3 | 0.00 | 0.00 | 0.00 | 64 | 1011.1 |
| 20260509132827 | 15 | 197 | 9.7 | 11.3 | 0.00 | 0.00 | 0.00 | 61 | 1011.2 |
| 20260509132325 | 15 | 216 | 9.7 | 12.9 | 0.00 | 0.00 | 0.00 | 63 | 1011.2 |
| 20260509131822 | 15 | 196 | 6.4 | 6.4 | 0.00 | 0.00 | 0.00 | 63 | 1011.4 |
| 20260509131318 | 15 | 208 | 17.7 | 20.9 | 0.00 | 0.00 | 0.00 | 63 | 1011.4 |
| 20260509130815 | 15 | 205 | 9.7 | 12.9 | 0.00 | 0.00 | 0.00 | 62 | 1011.4 |
| 20260509130311 | 15 | 196 | 9.7 | 11.3 | 0.00 | 0.00 | 0.00 | 63 | 1011.3 |
| 20260509125807 | 15 | 174 | 11.3 | 12.9 | 0.00 | 0.00 | 0.00 | 62 | 1011.4 |
| 20260509125307 | 14 | 214 | 6.4 | 9.7 | 0.00 | 0.00 | 0.00 | 66 | 1011.2 |
| 20260509124800 | 14 | 174 | 12.9 | 12.9 | 0.00 | 0.00 | 0.00 | 65 | 1011.4 |
| 20260509124257 | 13 | 186 | 12.9 | 14.5 | 0.00 | 0.00 | 0.00 | 66 | 1011.3 |
| 20260509123755 | 13 | 192 | 9.7 | 11.3 | 0.00 | 0.00 | 0.00 | 65 | 1011.3 |
| 20260509123252 | 13 | 182 | 11.3 | 12.9 | 0.00 | 0.00 | 0.00 | 64 | 1011.4 |
| 20260509122748 | 13 | 172 | 8.0 | 9.7 | 0.00 | 0.00 | 0.00 | 65 | 1011.5 |
| 20260509122245 | 13 | 190 | 6.4 | 6.4 | 0.00 | 0.00 | 0.00 | 63 | 1011.4 |
| 20260509121742 | 13 | 195 | 6.4 | 6.4 | 0.00 | 0.00 | 0.00 | 65 | 1011.4 |
| 20260509121239 | 13 | 183 | 4.8 | 4.8 | 0.00 | 0.00 | 0.00 | 65 | 1011.4 |
| 20260509120737 | 13 | 197 | 4.8 | 4.8 | 0.00 | 0.00 | 0.00 | 64 | 1011.5 |
| 20260509120234 | 13 | 198 | 4.8 | 4.8 | 0.00 | 0.00 | 0.00 | 64 | 1011.5 |
| 20260509115733 | 12 | 182 | 4.8 | 4.8 | 0.00 | 0.00 | 0.00 | 66 | 1011.4 |
| 20260509115229 | 12 | 201 | 4.8 | 4.8 | 0.00 | 0.00 | 0.00 | 70 | 1011.5 |
| 20260509114728 | 12 | 200 | 3.2 | 3.2 | 0.00 | 0.00 | 0.00 | 71 | 1011.5 |
| 20260509114226 | 11 | 197 | 3.2 | 4.8 | 0.00 | 0.00 | 0.00 | 69 | 1011.4 |
| 20260509113724 | 11 | 202 | 3.2 | 3.2 | 0.00 | 0.00 | 0.00 | 72 | 1011.3 |
| 20260509113221 | 11 | 202 | 1.6 | 1.6 | 0.00 | 0.00 | 0.00 | 74 | 1011.3 |
| 20260509112718 | 11 | 202 | 1.6 | 1.6 | 0.00 | 0.00 | 0.00 | 78 | 1011.4 |
| 20260509112215 | 11 | 202 | 1.6 | 1.6 | 0.00 | 0.00 | 0.00 | 73 | 1011.4 |
| 20260509111712 | 11 | 202 | 3.2 | 3.2 | 0.00 | 0.00 | 0.00 | 68 | 1011.5 |
| 20260509111209 | 11 | 216 | 1.6 | 3.2 | 0.00 | 0.00 | 0.00 | 68 | 1011.4 |
| 20260509110706 | 11 | 216 | 1.6 | 3.2 | 0.00 | 0.00 | 0.00 | 68 | 1011.4 |
| 20260509110203 | 11 | 209 | 1.6 | 1.6 | 0.00 | 0.00 | 0.00 | 68 | 1011.4 |
| 20260509105701 | 10 | 202 | 0.0 | 0.0 | 0.00 | 0.00 | 0.00 | 70 | 1011.2 |
| 20260509105158 | 10 | 202 | 1.6 | 1.6 | 0.00 | 0.00 | 0.00 | 70 | 1011.3 |
| 20260509104655 | 10 | 198 | 0.0 | 0.0 | 0.00 | 0.00 | 0.00 | 68 | 1011.3 |
| 20260509104152 | 10 | 198 | 0.0 | 0.0 | 0.00 | 0.00 | 0.00 | 68 | 1011.3 |
| 20260509103650 | 10 | 196 | 0.0 | 0.0 | 0.00 | 0.00 | 0.00 | 70 | 1011.2 |
| 20260509103147 | 10 | 198 | 0.0 | 0.0 | 0.00 | 0.00 | 0.00 | 70 | 1011.5 |
| 20260509102645 | 10 | 198 | 0.0 | 0.0 | 0.00 | 0.00 | 0.00 | 68 | 1011.3 |
| 20260509102142 | 10 | 198 | 0.0 | 0.0 | 0.00 | 0.00 | 0.00 | 68 | 1011.5 |
| 20260509101638 | 10 | 196 | 0.0 | 0.0 | 0.00 | 0.00 | 0.00 | 68 | 1011.3 |
| 20260509101135 | 10 | 196 | 0.0 | 0.0 | 0.00 | 0.00 | 0.00 | 68 | 1011.3 |
| 20260509100632 | 10 | 200 | 0.0 | 0.0 | 0.00 | 0.00 | 0.00 | 71 | 1011.4 |
| 20260509100129 | 10 | 202 | 0.0 | 0.0 | 0.00 | 0.00 | 0.00 | 69 | 1011.5 |
| 20260509095626 | 9 | 190 | 0.0 | 0.0 | 0.00 | 0.00 | 0.00 | 71 | 1011.5 |
| 20260509095123 | 10 | 202 | 0.0 | 0.0 | 0.00 | 0.00 | 0.00 | 70 | 1011.4 |
| 20260509094619 | 9 | 195 | 0.0 | 0.0 | 0.00 | 0.00 | 0.00 | 69 | 1011.3 |
| 20260509094117 | 9 | 200 | 0.0 | 1.6 | 0.00 | 0.00 | 0.00 | 71 | 1011.3 |
| 20260509093615 | 9 | 196 | 0.0 | 0.0 | 0.00 | 0.00 | 0.00 | 70 | 1011.5 |
| 20260509093112 | 8 | 185 | 0.0 | 0.0 | 0.00 | 0.00 | 0.00 | 68 | 1011.6 |
| 20260509092609 | 8 | 185 | 0.0 | 0.0 | 0.00 | 0.00 | 0.00 | 71 | 1011.5 |
| 20260509092108 | 9 | 185 | 0.0 | 0.0 | 0.00 | 0.00 | 0.00 | 70 | 1011.7 |
| 20260509091605 | 9 | 185 | 0.0 | 0.0 | 0.00 | 0.00 | 0.00 | 68 | 1011.6 |
| 20260509091101 | 9 | 185 | 0.0 | 0.0 | 0.00 | 0.00 | 0.00 | 67 | 1011.7 |
| 20260509090559 | 9 | 196 | 0.0 | 0.0 | 0.00 | 0.00 | 0.00 | 68 | 1011.7 |
| 20260509090057 | 10 | 198 | 0.0 | 0.0 | 0.00 | 0.00 | 0.00 | 67 | 1011.7 |
| 20260509085554 | 10 | 193 | 1.6 | 1.6 | 0.00 | 0.00 | 0.00 | 67 | 1011.5 |
| 20260509085050 | 10 | 200 | 0.0 | 0.0 | 0.00 | 0.00 | 0.00 | 66 | 1011.5 |
| 20260509084547 | 9 | 200 | 0.0 | 1.6 | 0.00 | 0.00 | 0.00 | 66 | 1011.6 |
| 20260509084044 | 10 | 200 | 0.0 | 0.0 | 0.00 | 0.00 | 0.00 | 67 | 1011.9 |
| 20260509083542 | 10 | 200 | 0.0 | 0.0 | 0.00 | 0.00 | 0.00 | 65 | 1011.6 |
| 20260509083038 | 10 | 200 | 0.0 | 0.0 | 0.00 | 0.00 | 0.00 | 66 | 1011.6 |
| 20260509082536 | 10 | 200 | 0.0 | 0.0 | 0.00 | 0.00 | 0.00 | 62 | 1011.7 |
| 20260509082032 | 10 | 200 | 0.0 | 0.0 | 0.00 | 0.00 | 0.00 | 65 | 1011.6 |
| 20260509081530 | 10 | 200 | 0.0 | 0.0 | 0.00 | 0.00 | 0.00 | 64 | 1011.5 |
| 20260509081026 | 10 | 200 | 0.0 | 1.6 | 0.00 | 0.00 | 0.00 | 62 | 1011.6 |
| 20260509080524 | 10 | 200 | 0.0 | 0.0 | 0.00 | 0.00 | 0.00 | 62 | 1011.6 |
| 20260509080022 | 10 | 200 | 0.0 | 0.0 | 0.00 | 0.00 | 0.00 | 62 | 1011.6 |
| 20260509075519 | 10 | 200 | 0.0 | 0.0 | 0.00 | 0.00 | 0.00 | 64 | 1011.6 |
| 20260509075017 | 10 | 200 | 0.0 | 0.0 | 0.00 | 0.00 | 0.00 | 64 | 1011.7 |
| 20260509074514 | 11 | 200 | 0.0 | 0.0 | 0.00 | 0.00 | 0.00 | 62 | 1011.8 |
| 20260509074010 | 11 | 201 | 0.0 | 0.0 | 0.00 | 0.00 | 0.00 | 59 | 1012.0 |
| 20260509073507 | 11 | 200 | 0.0 | 1.6 | 0.00 | 0.00 | 0.00 | 60 | 1011.9 |
| 20260509073003 | 11 | 199 | 0.0 | 0.0 | 0.00 | 0.00 | 0.00 | 60 | 1012.1 |
| 20260509072500 | 10 | 198 | 1.6 | 1.6 | 0.00 | 0.00 | 0.00 | 59 | 1012.1 |
| 20260509071957 | 11 | 198 | 0.0 | 0.0 | 0.00 | 0.00 | 0.00 | 61 | 1012.0 |
| 20260509071453 | 11 | 198 | 0.0 | 0.0 | 0.00 | 0.00 | 0.00 | 59 | 1012.1 |
| 20260509070951 | 11 | 197 | 0.0 | 0.0 | 0.00 | 0.00 | 0.00 | 56 | 1012.1 |
| 20260509070448 | 11 | 197 | 0.0 | 0.0 | 0.00 | 0.00 | 0.00 | 56 | 1012.4 |
| 20260509065943 | 12 | 197 | 0.0 | 0.0 | 0.00 | 0.00 | 0.00 | 55 | 1012.2 |
| 20260509065439 | 12 | 197 | 1.6 | 1.6 | 0.00 | 0.00 | 0.00 | 55 | 1012.1 |
| 20260509064936 | 12 | 202 | 3.2 | 3.2 | 0.00 | 0.00 | 0.00 | 54 | 1012.3 |
| 20260509064434 | 12 | 182 | 3.2 | 3.2 | 0.00 | 0.00 | 0.00 | 55 | 1012.1 |
| 20260509063932 | 11 | 188 | 6.4 | 6.4 | 0.00 | 0.00 | 0.00 | 55 | 1012.4 |
| 20260509063427 | 11 | 198 | 4.8 | 4.8 | 0.00 | 0.00 | 0.00 | 56 | 1012.2 |
| 20260509062924 | 10 | 175 | 4.8 | 4.8 | 0.00 | 0.00 | 0.00 | 60 | 1012.8 |
| 20260509062422 | 10 | 202 | 0.0 | 0.0 | 0.00 | 0.00 | 0.00 | 62 | 1012.6 |
| 20260509061919 | 10 | 202 | 0.0 | 0.0 | 0.00 | 0.00 | 0.00 | 63 | 1012.5 |
| 20260509061417 | 10 | 202 | 0.0 | 0.0 | 0.00 | 0.00 | 0.00 | 63 | 1012.7 |
| 20260509060913 | 10 | 202 | 0.0 | 0.0 | 0.00 | 0.00 | 0.00 | 63 | 1012.6 |
| 20260509060411 | 10 | 202 | 0.0 | 0.0 | 0.00 | 0.00 | 0.00 | 62 | 1012.5 |
| 20260509055905 | 10 | 202 | 1.6 | 1.6 | 0.00 | 0.00 | 0.00 | 62 | 1012.5 |
| 20260509055401 | 10 | 202 | 1.6 | 1.6 | 0.00 | 0.00 | 0.00 | 63 | 1012.9 |